Time;durP1;ratioP1;P1;durP2;ratioP2;P2;SDS_P1;SDS_P2;PMS_P1;PMS_P2;Temp;Humidity;BMP_temperature;BMP_pressure;BME280_temperature;BME280_humidity;BME280_pressure;Samples;Min_cycle;Max_cycle;Signal;HPM_P1;HPM_P2
2022/04/06 00:00:43;;;;;;;;;;;8.30;99.90;;;;;;5009806;28;19925;-81
2022/04/06 00:03:10;;;;;;;;;;;8.30;99.90;;;;;;5025144;28;20415;-81
2022/04/06 00:05:36;;;;;;;;;;;8.30;99.90;;;;;;5021109;28;19925;-81
2022/04/06 00:08:03;;;;;;;;;;;8.30;99.90;;;;;;5018214;28;19948;-81
2022/04/06 00:10:31;;;;;;;;;;;8.30;99.90;;;;;;5002454;28;20395;-81
2022/04/06 00:12:57;;;;;;;;;;;8.30;99.90;;;;;;5019745;28;20296;-81
2022/04/06 00:15:24;;;;;;;;;;;8.30;99.90;;;;;;5013064;28;19926;-81
2022/04/06 00:17:50;;;;;;;;;;;8.20;99.90;;;;;;5015681;28;20419;-79
2022/04/06 00:20:17;;;;;;;;;;;8.30;99.90;;;;;;5007569;28;20381;-80
2022/04/06 00:22:43;;;;;;;;;;;8.20;99.90;;;;;;5015605;28;19994;-81
2022/04/06 00:25:10;;;;;;;;;;;8.30;99.90;;;;;;5011542;28;19925;-82
2022/04/06 00:27:36;;;;;;;;;;;8.20;99.90;;;;;;5029595;28;19929;-81
2022/04/06 00:30:03;;;;;;;;;;;8.20;99.90;;;;;;5024057;28;20355;-81
2022/04/06 00:32:30;;;;;;;;;;;8.20;99.90;;;;;;4996963;28;19956;-82
2022/04/06 00:37:40;;;;;;;;;;;8.20;99.90;;;;;;5025707;28;19929;-81
2022/04/06 00:40:08;;;;;;;;;;;8.20;99.90;;;;;;5018139;28;20377;-81
2022/04/06 00:42:34;;;;;;;;;;;8.20;99.90;;;;;;4999880;28;19933;-80
2022/04/06 00:45:01;;;;;;;;;;;8.30;99.90;;;;;;5006021;28;19933;-80
2022/04/06 00:47:27;;;;;;;;;;;8.30;99.90;;;;;;5024526;28;19926;-81
2022/04/06 00:49:54;;;;;;;;;;;8.30;99.90;;;;;;5018391;28;19930;-80
2022/04/06 00:52:20;;;;;;;;;;;8.30;99.90;;;;;;5027259;28;19930;-80
2022/04/06 00:54:47;;;;;;;;;;;8.30;99.90;;;;;;5018154;28;19926;-80
2022/04/06 00:57:14;;;;;;;;;;;8.30;99.90;;;;;;5026113;28;19936;-81
2022/04/06 00:59:41;;;;;;;;;;;8.20;99.90;;;;;;5013523;28;19925;-82
2022/04/06 01:02:07;;;;;;;;;;;8.30;99.90;;;;;;5018950;28;19929;-80
2022/04/06 01:04:34;;;;;;;;;;;8.30;99.90;;;;;;5004431;28;19929;-82
2022/04/06 01:07:00;;;;;;;;;;;8.30;99.90;;;;;;5013911;28;19925;-81
2022/04/06 01:09:27;;;;;;;;;;;8.30;99.90;;;;;;5024009;28;19926;-81
2022/04/06 01:11:53;;;;;;;;;;;8.30;99.90;;;;;;5010297;28;19947;-81
2022/04/06 01:14:20;;;;;;;;;;;8.40;99.90;;;;;;5019156;28;19951;-81
2022/04/06 01:16:46;;;;;;;;;;;8.40;99.90;;;;;;5020017;28;19925;-81
2022/04/06 01:19:13;;;;;;;;;;;8.30;99.90;;;;;;5023904;28;19936;-83
2022/04/06 01:21:39;;;;;;;;;;;8.40;99.90;;;;;;5012457;28;21117;-81
2022/04/06 01:24:06;;;;;;;;;;;8.30;99.90;;;;;;5015763;28;19926;-80
2022/04/06 01:26:34;;;;;;;;;;;8.30;99.90;;;;;;5019920;28;19936;-82
2022/04/06 01:29:01;;;;;;;;;;;8.40;99.90;;;;;;5017648;28;19936;-81
2022/04/06 01:31:27;;;;;;;;;;;8.40;99.90;;;;;;5019975;28;19933;-80
2022/04/06 01:33:54;;;;;;;;;;;8.30;99.90;;;;;;5018153;28;20000;-80
2022/04/06 01:36:21;;;;;;;;;;;8.40;99.90;;;;;;5025287;28;19933;-81
2022/04/06 01:38:47;;;;;;;;;;;8.40;99.90;;;;;;5019860;28;19975;-81
2022/04/06 01:41:14;;;;;;;;;;;8.40;99.90;;;;;;5012195;28;20280;-81
2022/04/06 01:43:41;;;;;;;;;;;8.40;99.90;;;;;;5013010;28;19931;-81
2022/04/06 01:46:07;;;;;;;;;;;8.40;99.90;;;;;;5018076;28;19932;-80
2022/04/06 01:52:11;;;;;;;;;;;8.40;99.90;;;;;;5012989;28;19929;-80
2022/04/06 01:54:04;;;;;;;;;;;8.50;99.90;;;;;;5013459;28;19925;-80
2022/04/06 01:56:31;;;;;;;;;;;8.40;99.90;;;;;;5023760;28;20335;-80
2022/04/06 01:58:59;;;;;;;;;;;8.50;99.90;;;;;;5019517;28;19921;-81
2022/04/06 02:01:25;;;;;;;;;;;8.50;99.90;;;;;;5013914;28;20033;-82
2022/04/06 02:03:52;;;;;;;;;;;8.50;99.90;;;;;;5006719;28;20277;-81
2022/04/06 02:06:18;;;;;;;;;;;8.50;99.90;;;;;;5018694;28;19948;-79
2022/04/06 02:08:45;;;;;;;;;;;8.50;99.90;;;;;;5013114;28;19932;-81
2022/04/06 02:11:11;;;;;;;;;;;8.50;99.90;;;;;;5018024;28;19932;-81
2022/04/06 02:13:39;;;;;;;;;;;8.50;99.90;;;;;;5007305;28;19948;-83
2022/04/06 02:16:05;;;;;;;;;;;8.50;99.90;;;;;;5030243;28;20036;-81
2022/04/06 02:18:32;;;;;;;;;;;8.50;99.90;;;;;;5014577;28;19932;-87
2022/04/06 02:20:58;;;;;;;;;;;8.60;99.90;;;;;;5016503;28;19947;-82
2022/04/06 02:23:25;;;;;;;;;;;8.50;99.90;;;;;;5027978;28;19928;-82
2022/04/06 02:25:51;;;;;;;;;;;8.50;99.90;;;;;;5020630;28;19925;-82
2022/04/06 02:28:18;;;;;;;;;;;8.50;99.90;;;;;;5016465;28;19925;-82
2022/04/06 02:30:44;;;;;;;;;;;8.60;99.90;;;;;;5016496;28;19929;-82
2022/04/06 02:33:11;;;;;;;;;;;8.60;99.90;;;;;;5016140;28;19925;-81
2022/04/06 02:35:37;;;;;;;;;;;8.60;99.90;;;;;;5028968;28;19940;-82
2022/04/06 02:38:04;;;;;;;;;;;8.60;99.90;;;;;;5019598;28;19950;-82
2022/04/06 02:40:33;;;;;;;;;;;8.60;99.90;;;;;;5023043;28;19929;-82
2022/04/06 02:42:59;;;;;;;;;;;8.50;99.90;;;;;;5016660;28;19929;-82
2022/04/06 02:45:26;;;;;;;;;;;8.60;99.90;;;;;;5018710;28;19932;-82
2022/04/06 02:47:52;;;;;;;;;;;8.60;99.90;;;;;;5028102;28;19936;-81
2022/04/06 02:50:19;;;;;;;;;;;8.70;99.90;;;;;;5027750;28;19925;-82
2022/04/06 02:52:46;;;;;;;;;;;8.70;99.90;;;;;;5011369;28;19930;-82
2022/04/06 02:55:12;;;;;;;;;;;8.70;99.90;;;;;;5028954;28;19929;-82
2022/04/06 02:57:39;;;;;;;;;;;8.60;99.90;;;;;;5018526;28;19925;-82
2022/04/06 03:00:06;;;;;;;;;;;8.70;99.90;;;;;;5023942;28;20063;-82
2022/04/06 03:02:32;;;;;;;;;;;8.70;99.90;;;;;;5010540;28;20320;-81
2022/04/06 03:04:59;;;;;;;;;;;8.70;99.90;;;;;;5026058;28;20361;-82
2022/04/06 03:07:25;;;;;;;;;;;8.70;99.90;;;;;;5018093;28;20452;-81
2022/04/06 03:09:52;;;;;;;;;;;8.70;99.90;;;;;;5032785;28;19968;-82
2022/04/06 03:12:19;;;;;;;;;;;8.70;99.90;;;;;;5017817;28;19926;-81
2022/04/06 03:14:45;;;;;;;;;;;8.70;99.90;;;;;;5003434;28;19933;-82
2022/04/06 03:17:15;;;;;;;;;;;8.70;99.90;;;;;;5020617;28;19935;-81
2022/04/06 03:19:42;;;;;;;;;;;8.70;99.90;;;;;;5019227;28;19968;-82
2022/04/06 03:22:09;;;;;;;;;;;8.70;99.90;;;;;;4998439;28;19976;-82
2022/04/06 03:24:35;;;;;;;;;;;8.70;99.90;;;;;;5024017;28;19926;-82
2022/04/06 03:27:02;;;;;;;;;;;8.70;99.90;;;;;;5023250;28;19929;-82
2022/04/06 03:29:28;;;;;;;;;;;8.80;99.90;;;;;;5022192;28;19931;-82
2022/04/06 03:31:55;;;;;;;;;;;8.70;99.90;;;;;;5028593;28;19968;-82
2022/04/06 03:34:21;;;;;;;;;;;8.70;99.90;;;;;;5015613;28;19925;-81
2022/04/06 03:36:48;;;;;;;;;;;8.70;99.90;;;;;;5013626;28;20292;-81
2022/04/06 03:39:14;;;;;;;;;;;8.70;99.90;;;;;;5025989;28;20434;-81
2022/04/06 03:41:41;;;;;;;;;;;8.70;99.90;;;;;;5022089;28;20419;-81
2022/04/06 03:44:08;;;;;;;;;;;8.70;99.90;;;;;;5005399;28;20280;-81
2022/04/06 03:46:34;;;;;;;;;;;8.60;99.90;;;;;;5027565;28;20548;-81
2022/04/06 03:49:01;;;;;;;;;;;8.60;99.90;;;;;;5007531;28;19929;-81
2022/04/06 03:51:28;;;;;;;;;;;8.60;99.90;;;;;;5016923;28;19951;-82
2022/04/06 03:53:55;;;;;;;;;;;8.60;99.90;;;;;;5015078;28;19925;-83
2022/04/06 03:56:21;;;;;;;;;;;8.50;99.90;;;;;;5024753;28;20291;-82
2022/04/06 03:58:48;;;;;;;;;;;8.50;99.90;;;;;;5021467;28;19952;-82
2022/04/06 04:01:15;;;;;;;;;;;8.50;99.90;;;;;;5016575;28;19932;-82
2022/04/06 04:03:41;;;;;;;;;;;8.50;99.90;;;;;;5026831;28;19975;-82
2022/04/06 04:06:08;;;;;;;;;;;8.50;99.90;;;;;;5029624;28;19932;-81
2022/04/06 04:08:35;;;;;;;;;;;8.50;99.90;;;;;;5022467;28;19930;-82
2022/04/06 04:11:01;;;;;;;;;;;8.50;99.90;;;;;;5027009;28;19929;-82
2022/04/06 04:13:28;;;;;;;;;;;8.50;99.90;;;;;;5002802;28;19949;-81
2022/04/06 04:15:54;;;;;;;;;;;8.50;99.90;;;;;;5024249;28;19926;-82
2022/04/06 04:18:21;;;;;;;;;;;8.50;99.90;;;;;;5013244;28;20859;-82
2022/04/06 04:20:47;;;;;;;;;;;8.50;99.90;;;;;;5022014;28;19932;-82
2022/04/06 04:23:14;;;;;;;;;;;8.50;99.90;;;;;;5021565;28;19925;-81
2022/04/06 04:25:40;;;;;;;;;;;8.50;99.90;;;;;;4998732;28;19937;-82
2022/04/06 04:28:07;;;;;;;;;;;8.50;99.90;;;;;;5019898;28;20631;-81
2022/04/06 04:30:34;;;;;;;;;;;8.50;99.90;;;;;;5019189;28;19972;-81
2022/04/06 04:33:00;;;;;;;;;;;8.60;99.90;;;;;;5027218;28;19929;-81
2022/04/06 04:35:27;;;;;;;;;;;8.60;99.90;;;;;;5018774;28;19925;-82
2022/04/06 04:37:54;;;;;;;;;;;8.50;99.90;;;;;;5016942;28;19933;-82
2022/04/06 04:40:21;;;;;;;;;;;8.50;99.90;;;;;;5018107;28;19936;-82
2022/04/06 04:42:48;;;;;;;;;;;8.50;99.90;;;;;;5030504;28;19925;-81
2022/04/06 04:45:14;;;;;;;;;;;8.40;99.90;;;;;;5018301;28;20556;-81
2022/04/06 04:47:41;;;;;;;;;;;8.50;99.90;;;;;;5018791;28;20399;-81
2022/04/06 04:50:09;;;;;;;;;;;8.50;99.90;;;;;;5023938;28;19936;-82
2022/04/06 04:52:35;;;;;;;;;;;8.50;99.90;;;;;;5001347;28;20031;-81
2022/04/06 04:55:02;;;;;;;;;;;8.50;99.90;;;;;;5009110;28;20537;-82
2022/04/06 04:57:28;;;;;;;;;;;8.40;99.90;;;;;;5026198;28;19925;-81
2022/04/06 04:59:55;;;;;;;;;;;8.40;99.90;;;;;;5013196;28;19925;-82
2022/04/06 05:02:22;;;;;;;;;;;8.50;99.90;;;;;;4998304;28;20411;-81
2022/04/06 05:04:48;;;;;;;;;;;8.40;99.90;;;;;;5003760;28;19925;-82
2022/04/06 05:07:15;;;;;;;;;;;8.40;99.90;;;;;;5019915;28;20285;-81
2022/04/06 05:09:41;;;;;;;;;;;8.50;99.90;;;;;;5010846;28;20284;-82
2022/04/06 05:12:08;;;;;;;;;;;8.50;99.90;;;;;;5024995;28;19929;-82
2022/04/06 05:14:34;;;;;;;;;;;8.50;99.90;;;;;;5016163;28;19977;-81
2022/04/06 05:17:01;;;;;;;;;;;8.60;99.90;;;;;;5019657;28;19929;-81
2022/04/06 05:19:27;;;;;;;;;;;8.50;99.90;;;;;;5022201;28;20012;-81
2022/04/06 05:21:54;;;;;;;;;;;8.60;99.90;;;;;;5008835;28;19936;-82
2022/04/06 05:24:21;;;;;;;;;;;8.60;99.90;;;;;;5018178;28;19933;-82
2022/04/06 05:26:47;;;;;;;;;;;8.60;99.90;;;;;;4996525;28;19925;-81
2022/04/06 05:29:14;;;;;;;;;;;8.60;99.90;;;;;;5004379;28;19928;-81
2022/04/06 05:31:40;;;;;;;;;;;8.60;99.90;;;;;;5024119;28;19929;-82
2022/04/06 05:34:07;;;;;;;;;;;8.60;99.90;;;;;;5015580;28;19925;-82
2022/04/06 05:36:33;;;;;;;;;;;8.60;99.90;;;;;;4994919;28;19925;-81
2022/04/06 05:39:00;;;;;;;;;;;8.60;99.90;;;;;;5009956;28;19929;-81
2022/04/06 05:41:27;;;;;;;;;;;8.50;99.90;;;;;;5017737;28;19932;-82
2022/04/06 05:43:53;;;;;;;;;;;8.50;99.90;;;;;;5030245;28;19932;-81
2022/04/06 05:46:20;;;;;;;;;;;8.60;99.90;;;;;;5016787;28;19932;-81
2022/04/06 05:48:46;;;;;;;;;;;8.50;99.90;;;;;;5016835;28;19933;-81
2022/04/06 05:51:13;;;;;;;;;;;8.60;99.90;;;;;;5018432;28;19925;-81
2022/04/06 05:53:40;;;;;;;;;;;8.60;99.90;;;;;;5013170;28;19925;-81
2022/04/06 05:56:06;;;;;;;;;;;8.60;99.90;;;;;;5029267;28;20365;-81
2022/04/06 05:58:33;;;;;;;;;;;8.50;99.90;;;;;;5014547;28;19956;-81
2022/04/06 06:00:59;;;;;;;;;;;8.50;99.90;;;;;;5030495;28;19955;-81
2022/04/06 06:03:26;;;;;;;;;;;8.60;99.90;;;;;;5029504;28;19939;-81
2022/04/06 06:05:53;;;;;;;;;;;8.60;99.90;;;;;;5011507;28;20008;-81
2022/04/06 06:08:19;;;;;;;;;;;8.60;99.90;;;;;;5013387;28;19936;-81
2022/04/06 06:10:46;;;;;;;;;;;8.60;99.90;;;;;;5013216;28;19932;-81
2022/04/06 06:13:12;;;;;;;;;;;8.60;99.90;;;;;;5012237;28;19940;-81
2022/04/06 06:15:39;;;;;;;;;;;8.50;99.90;;;;;;5014658;28;19925;-80
2022/04/06 06:18:05;;;;;;;;;;;8.50;99.90;;;;;;5012634;28;19925;-81
2022/04/06 06:20:32;;;;;;;;;;;8.50;99.90;;;;;;5013479;28;19940;-81
2022/04/06 06:22:58;;;;;;;;;;;8.60;99.90;;;;;;5028077;28;19925;-81
2022/04/06 06:25:26;;;;;;;;;;;8.60;99.90;;;;;;5016634;28;19932;-81
2022/04/06 06:27:53;;;;;;;;;;;8.60;99.90;;;;;;5013635;28;19933;-80
2022/04/06 06:30:19;;;;;;;;;;;8.60;99.90;;;;;;5028695;28;19925;-79
2022/04/06 06:32:46;;;;;;;;;;;8.60;99.90;;;;;;5010118;28;19932;-80
2022/04/06 06:35:13;;;;;;;;;;;8.60;99.90;;;;;;5007573;28;20056;-80
2022/04/06 06:37:39;;;;;;;;;;;8.50;99.90;;;;;;5010762;28;19925;-79
2022/04/06 06:40:06;;;;;;;;;;;8.60;99.90;;;;;;5008845;28;19926;-80
2022/04/06 06:42:32;;;;;;;;;;;8.60;99.90;;;;;;5009165;28;19930;-79
2022/04/06 06:44:59;;;;;;;;;;;8.50;99.90;;;;;;5007598;28;19932;-79
2022/04/06 06:47:26;;;;;;;;;;;8.40;99.90;;;;;;5009663;28;19925;-79
2022/04/06 06:49:52;;;;;;;;;;;8.40;99.90;;;;;;5008673;28;19929;-79
2022/04/06 06:52:19;;;;;;;;;;;8.40;99.90;;;;;;5006364;28;19937;-79
2022/04/06 06:54:45;;;;;;;;;;;8.40;99.90;;;;;;5009786;28;19932;-79
2022/04/06 06:57:12;;;;;;;;;;;8.30;99.90;;;;;;5008181;28;19930;-80
2022/04/06 06:59:38;;;;;;;;;;;8.30;99.90;;;;;;5008131;28;19956;-79
2022/04/06 07:02:05;;;;;;;;;;;8.30;99.90;;;;;;5005916;28;19933;-79
2022/04/06 07:04:32;;;;;;;;;;;8.20;99.90;;;;;;5010324;28;19935;-79
2022/04/06 07:06:58;;;;;;;;;;;8.30;99.90;;;;;;5007856;28;19925;-80
2022/04/06 07:09:25;;;;;;;;;;;8.20;99.90;;;;;;5005989;28;19930;-80
2022/04/06 07:11:52;;;;;;;;;;;8.20;99.90;;;;;;5010469;28;19976;-80
2022/04/06 07:14:19;;;;;;;;;;;8.20;99.90;;;;;;5007928;28;19975;-79
2022/04/06 07:16:45;;;;;;;;;;;8.20;99.90;;;;;;5011009;28;20292;-80
2022/04/06 07:19:12;;;;;;;;;;;8.20;99.90;;;;;;5007492;28;19929;-80
2022/04/06 07:21:38;;;;;;;;;;;8.10;99.90;;;;;;5007971;28;19935;-80
2022/04/06 07:24:05;;;;;;;;;;;8.10;99.90;;;;;;5008888;28;19947;-81
2022/04/06 07:26:32;;;;;;;;;;;8.10;99.90;;;;;;5010233;28;19933;-80
2022/04/06 07:28:59;;;;;;;;;;;8.20;99.90;;;;;;5009077;28;19932;-80
2022/04/06 07:31:25;;;;;;;;;;;8.10;99.90;;;;;;5006451;28;20025;-80
2022/04/06 07:33:52;;;;;;;;;;;8.10;99.90;;;;;;5016179;28;19936;-80
2022/04/06 07:36:18;;;;;;;;;;;8.10;99.90;;;;;;5028441;28;19925;-80
2022/04/06 07:38:45;;;;;;;;;;;8.10;99.90;;;;;;5011281;28;20015;-80
2022/04/06 07:41:11;;;;;;;;;;;8.10;99.90;;;;;;5009471;28;19933;-80
2022/04/06 07:43:38;;;;;;;;;;;8.10;99.90;;;;;;5010938;28;19937;-79
2022/04/06 07:46:05;;;;;;;;;;;8.20;99.90;;;;;;5012213;28;19929;-80
2022/04/06 07:48:32;;;;;;;;;;;8.10;99.90;;;;;;5009798;28;20525;-79
2022/04/06 07:50:58;;;;;;;;;;;8.20;99.90;;;;;;5012017;28;19925;-80
2022/04/06 07:53:25;;;;;;;;;;;8.20;99.90;;;;;;5028966;28;19926;-80
2022/04/06 07:55:52;;;;;;;;;;;8.20;99.90;;;;;;5012111;28;19928;-80
2022/04/06 07:58:19;;;;;;;;;;;8.10;99.90;;;;;;5009320;28;19925;-80
2022/04/06 08:00:45;;;;;;;;;;;8.10;99.90;;;;;;5012428;28;19975;-80
2022/04/06 08:03:12;;;;;;;;;;;8.10;99.90;;;;;;5011101;28;19929;-79
2022/04/06 08:05:39;;;;;;;;;;;8.10;99.90;;;;;;5014479;28;20381;-79
2022/04/06 08:08:05;;;;;;;;;;;8.10;99.90;;;;;;5014905;28;19929;-78
2022/04/06 08:10:32;;;;;;;;;;;8.20;99.90;;;;;;5025475;28;20369;-79
2022/04/06 08:12:58;;;;;;;;;;;8.10;99.90;;;;;;5011295;28;20011;-80
2022/04/06 08:15:25;;;;;;;;;;;8.10;99.90;;;;;;5006883;28;20663;-79
2022/04/06 08:17:51;;;;;;;;;;;8.10;99.90;;;;;;5010439;28;19979;-80
2022/04/06 08:20:18;;;;;;;;;;;8.10;99.90;;;;;;5011575;28;19929;-79
2022/04/06 08:22:44;;;;;;;;;;;8.20;99.90;;;;;;5028786;28;19925;-79
2022/04/06 08:25:11;;;;;;;;;;;8.20;99.90;;;;;;5025106;28;19941;-80
2022/04/06 08:27:40;;;;;;;;;;;8.10;99.90;;;;;;5020070;28;19936;-80
2022/04/06 08:30:06;;;;;;;;;;;8.20;99.90;;;;;;5019884;28;20009;-80
2022/04/06 08:32:33;;;;;;;;;;;8.20;99.90;;;;;;5027726;28;19929;-80
2022/04/06 08:34:59;;;;;;;;;;;8.20;99.90;;;;;;5011549;28;19955;-80
2022/04/06 08:37:26;;;;;;;;;;;8.20;99.90;;;;;;5024291;28;19932;-79
2022/04/06 08:39:53;;;;;;;;;;;8.20;99.90;;;;;;5012514;28;20382;-80
2022/04/06 08:42:19;;;;;;;;;;;8.20;99.90;;;;;;5012811;28;20364;-80
2022/04/06 08:44:46;;;;;;;;;;;8.30;99.90;;;;;;5020478;28;19936;-80
2022/04/06 08:47:12;;;;;;;;;;;8.40;99.90;;;;;;5002350;28;19936;-81
2022/04/06 08:49:39;;;;;;;;;;;8.40;99.90;;;;;;5019035;28;20293;-80
2022/04/06 08:52:06;;;;;;;;;;;8.40;99.90;;;;;;5015831;28;19929;-80
2022/04/06 08:54:32;;;;;;;;;;;8.40;99.90;;;;;;5003777;28;20114;-80
2022/04/06 08:56:59;;;;;;;;;;;8.40;99.90;;;;;;5008252;28;19932;-80
2022/04/06 08:59:26;;;;;;;;;;;8.40;99.90;;;;;;5027223;28;19933;-80
2022/04/06 09:01:52;;;;;;;;;;;8.40;99.90;;;;;;5012548;28;19936;-80
2022/04/06 09:04:20;;;;;;;;;;;8.40;99.90;;;;;;5004631;28;19932;-80
2022/04/06 09:06:47;;;;;;;;;;;8.50;99.90;;;;;;5013839;28;19929;-80
2022/04/06 09:09:13;;;;;;;;;;;8.40;99.90;;;;;;5026186;28;19935;-81
2022/04/06 09:11:40;;;;;;;;;;;8.50;99.90;;;;;;5012021;28;19929;-80
2022/04/06 09:14:06;;;;;;;;;;;8.50;99.90;;;;;;5020142;28;19930;-79
2022/04/06 09:16:33;;;;;;;;;;;8.50;99.90;;;;;;5009278;28;19937;-79
2022/04/06 09:18:59;;;;;;;;;;;8.60;99.90;;;;;;5007559;28;19933;-80
2022/04/06 09:21:26;;;;;;;;;;;8.50;99.90;;;;;;5028448;28;19951;-80
2022/04/06 09:23:53;;;;;;;;;;;8.70;99.90;;;;;;5012722;28;19929;-80
2022/04/06 09:26:21;;;;;;;;;;;8.70;99.90;;;;;;5003775;28;19932;-81
2022/04/06 09:28:47;;;;;;;;;;;8.70;99.90;;;;;;5018479;28;19933;-80
2022/04/06 09:31:14;;;;;;;;;;;8.70;99.90;;;;;;5011030;28;20344;-79
2022/04/06 09:33:41;;;;;;;;;;;8.70;99.90;;;;;;5006893;28;20284;-80
2022/04/06 09:36:08;;;;;;;;;;;8.80;99.90;;;;;;5011915;28;19929;-80
2022/04/06 09:38:34;;;;;;;;;;;8.80;99.90;;;;;;5008097;28;19936;-79
2022/04/06 09:41:01;;;;;;;;;;;8.90;99.90;;;;;;5025506;28;20012;-80
2022/04/06 09:43:27;;;;;;;;;;;8.90;99.90;;;;;;5004460;28;19984;-80
2022/04/06 09:48:38;;;;;;;;;;;9.00;99.90;;;;;;5021030;28;19925;-80
2022/04/06 09:51:05;;;;;;;;;;;9.00;99.90;;;;;;5028156;28;19932;-80
2022/04/06 09:53:31;;;;;;;;;;;9.00;99.90;;;;;;5019115;28;19933;-80
2022/04/06 09:55:58;;;;;;;;;;;9.10;99.90;;;;;;5015699;28;19929;-80
2022/04/06 09:58:25;;;;;;;;;;;9.10;99.90;;;;;;5006955;28;19927;-80
2022/04/06 10:00:51;;;;;;;;;;;9.10;99.90;;;;;;5024468;28;19929;-81
2022/04/06 10:03:18;;;;;;;;;;;9.20;99.90;;;;;;5003237;28;19929;-81
2022/04/06 10:05:46;;;;;;;;;;;9.30;99.90;;;;;;5017135;28;19925;-81
2022/04/06 10:08:13;;;;;;;;;;;9.40;99.90;;;;;;5012759;28;20073;-85
2022/04/06 10:10:40;;;;;;;;;;;9.40;99.90;;;;;;5005983;28;19968;-85
2022/04/06 10:13:07;;;;;;;;;;;9.40;99.90;;;;;;5021812;28;20479;-79
2022/04/06 10:15:34;;;;;;;;;;;9.40;99.90;;;;;;5023357;28;20347;-80
2022/04/06 10:18:01;;;;;;;;;;;9.50;99.90;;;;;;5018621;28;19926;-80
2022/04/06 10:20:27;;;;;;;;;;;9.60;99.90;;;;;;5008902;28;19948;-83
2022/04/06 10:22:54;;;;;;;;;;;9.70;99.90;;;;;;5021595;28;20036;-82
2022/04/06 10:25:20;;;;;;;;;;;9.70;99.90;;;;;;5025300;28;19971;-80
2022/04/06 10:27:47;;;;;;;;;;;9.70;99.90;;;;;;5027384;28;19926;-80
2022/04/06 10:30:14;;;;;;;;;;;9.60;99.90;;;;;;5027685;28;19929;-80
2022/04/06 10:32:40;;;;;;;;;;;9.60;99.90;;;;;;5011400;28;19980;-80
2022/04/06 10:35:07;;;;;;;;;;;9.70;99.90;;;;;;5030137;28;19925;-77
2022/04/06 10:37:33;;;;;;;;;;;9.70;99.90;;;;;;5029730;28;19929;-76
2022/04/06 10:40:00;;;;;;;;;;;9.60;99.90;;;;;;5029004;28;19926;-77
2022/04/06 10:42:26;;;;;;;;;;;9.60;99.90;;;;;;5023034;28;19932;-77
2022/04/06 10:44:53;;;;;;;;;;;9.60;99.90;;;;;;5025394;28;19929;-77
2022/04/06 10:47:19;;;;;;;;;;;9.60;99.90;;;;;;5030244;28;19935;-76
2022/04/06 10:49:46;;;;;;;;;;;9.60;99.90;;;;;;5030389;28;19925;-76
2022/04/06 10:52:13;;;;;;;;;;;9.60;99.90;;;;;;5028378;28;20016;-76
2022/04/06 10:54:39;;;;;;;;;;;9.60;99.90;;;;;;5012404;28;19929;-76
2022/04/06 10:57:07;;;;;;;;;;;9.60;99.90;;;;;;5018428;28;19956;-76
2022/04/06 10:59:34;;;;;;;;;;;9.60;99.90;;;;;;5011738;28;19975;-76
2022/04/06 11:02:00;;;;;;;;;;;9.60;99.90;;;;;;5017871;28;19955;-76
2022/04/06 11:04:27;;;;;;;;;;;9.60;99.90;;;;;;5030828;28;19932;-79
2022/04/06 11:06:56;;;;;;;;;;;9.60;99.90;;;;;;5004196;28;19929;-77
2022/04/06 11:12:07;;;;;;;;;;;9.70;99.90;;;;;;5015442;28;20015;-76
2022/04/06 11:14:33;;;;;;;;;;;9.70;99.90;;;;;;5013193;28;20005;-76
2022/04/06 11:17:00;;;;;;;;;;;9.70;99.90;;;;;;5026572;28;20797;-76
2022/04/06 11:19:26;;;;;;;;;;;9.60;99.90;;;;;;5029990;28;20379;-78
2022/04/06 11:21:53;;;;;;;;;;;9.60;99.90;;;;;;5013529;28;21842;-76
2022/04/06 11:24:20;;;;;;;;;;;9.60;99.90;;;;;;5014333;28;21086;-77
2022/04/06 11:26:46;;;;;;;;;;;9.60;99.90;;;;;;5015983;28;20024;-76
2022/04/06 11:29:13;;;;;;;;;;;9.50;99.90;;;;;;5001653;28;19930;-77
2022/04/06 11:31:39;;;;;;;;;;;9.50;99.90;;;;;;5020119;28;20300;-76
2022/04/06 11:34:06;;;;;;;;;;;9.50;99.90;;;;;;5011838;28;20300;-76
2022/04/06 11:36:32;;;;;;;;;;;9.50;99.90;;;;;;5026689;28;20373;-77
2022/04/06 11:38:59;;;;;;;;;;;9.50;99.90;;;;;;5024985;28;19929;-76
2022/04/06 11:41:26;;;;;;;;;;;9.50;99.90;;;;;;5028946;28;20311;-77
2022/04/06 11:43:53;;;;;;;;;;;9.40;99.90;;;;;;5011137;28;19930;-76
2022/04/06 11:46:20;;;;;;;;;;;9.40;99.90;;;;;;5009344;28;19932;-75
2022/04/06 11:48:46;;;;;;;;;;;9.40;99.90;;;;;;5005316;28;19932;-76
2022/04/06 11:51:13;;;;;;;;;;;9.40;99.90;;;;;;5000086;28;19937;-76
2022/04/06 11:53:39;;;;;;;;;;;9.50;99.90;;;;;;5027429;28;19937;-76
2022/04/06 11:56:06;;;;;;;;;;;9.50;99.90;;;;;;5020996;28;19933;-78
2022/04/06 11:58:33;;;;;;;;;;;9.60;99.90;;;;;;5022636;28;19926;-78
2022/04/06 12:00:59;;;;;;;;;;;9.70;99.90;;;;;;5017510;28;20380;-76
2022/04/06 12:03:26;;;;;;;;;;;9.80;99.90;;;;;;5016966;28;19925;-77
2022/04/06 12:05:53;;;;;;;;;;;9.90;99.90;;;;;;5018535;28;19936;-76
2022/04/06 12:08:19;;;;;;;;;;;10.00;99.90;;;;;;5019463;28;20440;-75
2022/04/06 12:10:46;;;;;;;;;;;10.00;99.90;;;;;;5022078;28;19929;-76
2022/04/06 12:13:12;;;;;;;;;;;10.10;99.90;;;;;;5021794;28;20451;-76
2022/04/06 12:15:39;;;;;;;;;;;10.30;99.90;;;;;;5028658;28;19969;-76
2022/04/06 12:18:05;;;;;;;;;;;10.40;99.90;;;;;;5016204;28;19925;-76
2022/04/06 12:20:32;;;;;;;;;;;10.50;99.90;;;;;;5023387;28;19936;-77
2022/04/06 12:22:59;;;;;;;;;;;10.50;99.90;;;;;;4996048;28;20001;-78
2022/04/06 12:25:25;;;;;;;;;;;10.50;99.90;;;;;;5013403;28;19979;-76
2022/04/06 12:27:52;;;;;;;;;;;10.50;99.90;;;;;;5020194;28;19929;-76
2022/04/06 12:30:18;;;;;;;;;;;10.50;99.90;;;;;;5026922;28;19931;-76
2022/04/06 12:32:45;;;;;;;;;;;10.50;99.90;;;;;;5009658;28;19925;-76
2022/04/06 12:35:12;;;;;;;;;;;10.50;99.90;;;;;;5008258;28;19940;-76
2022/04/06 12:37:41;;;;;;;;;;;10.50;99.90;;;;;;5008837;28;21346;-76
2022/04/06 12:40:08;;;;;;;;;;;10.50;99.90;;;;;;5003259;28;19925;-76
2022/04/06 12:42:34;;;;;;;;;;;10.60;99.90;;;;;;5026346;28;19933;-76
2022/04/06 12:45:02;;;;;;;;;;;10.70;99.90;;;;;;5022052;28;19925;-76
2022/04/06 12:47:28;;;;;;;;;;;10.90;99.90;;;;;;4994330;28;19984;-76
2022/04/06 12:49:55;;;;;;;;;;;11.00;99.90;;;;;;5018202;28;19925;-77
2022/04/06 12:52:22;;;;;;;;;;;10.90;99.90;;;;;;5026866;28;20023;-76
2022/04/06 12:54:48;;;;;;;;;;;10.90;99.90;;;;;;5016462;28;20324;-76
2022/04/06 12:57:16;;;;;;;;;;;10.90;99.90;;;;;;5013014;28;19929;-75
2022/04/06 12:59:43;;;;;;;;;;;10.80;99.90;;;;;;5022630;28;20423;-76
2022/04/06 13:02:10;;;;;;;;;;;10.90;99.90;;;;;;5016192;28;19936;-76
2022/04/06 13:04:36;;;;;;;;;;;10.90;99.90;;;;;;5021585;28;19932;-75
2022/04/06 13:07:03;;;;;;;;;;;11.00;99.90;;;;;;5019014;28;20020;-76
2022/04/06 13:09:29;;;;;;;;;;;11.10;99.90;;;;;;5029037;28;20349;-76
2022/04/06 13:11:56;;;;;;;;;;;11.20;99.90;;;;;;5020241;28;20734;-76
2022/04/06 13:14:23;;;;;;;;;;;11.30;99.90;;;;;;5024630;28;20491;-76
2022/04/06 13:16:50;;;;;;;;;;;11.40;99.90;;;;;;5025420;28;19925;-77
2022/04/06 13:19:16;;;;;;;;;;;11.50;99.90;;;;;;5013526;28;19925;-76
2022/04/06 13:21:43;;;;;;;;;;;11.60;99.90;;;;;;5012594;28;20016;-76
2022/04/06 13:24:10;;;;;;;;;;;11.70;99.90;;;;;;5017023;28;19929;-76
2022/04/06 13:26:36;;;;;;;;;;;11.70;99.90;;;;;;5009596;28;19935;-77
2022/04/06 13:29:03;;;;;;;;;;;11.70;99.90;;;;;;5020061;28;19936;-76
2022/04/06 13:31:29;;;;;;;;;;;11.70;99.90;;;;;;5012242;28;19961;-76
2022/04/06 13:33:56;;;;;;;;;;;11.60;99.90;;;;;;5016152;28;19932;-76
2022/04/06 13:36:22;;;;;;;;;;;11.60;99.90;;;;;;5015777;28;20032;-76
2022/04/06 13:38:50;;;;;;;;;;;11.50;99.90;;;;;;5002703;28;20020;-76
2022/04/06 13:41:17;;;;;;;;;;;11.60;99.90;;;;;;5028432;28;20347;-76
2022/04/06 13:43:43;;;;;;;;;;;11.60;99.90;;;;;;5015464;28;19932;-78
2022/04/06 13:46:10;;;;;;;;;;;11.70;99.90;;;;;;5028586;28;20398;-76
2022/04/06 13:48:38;;;;;;;;;;;11.70;99.90;;;;;;5022879;28;19925;-76
2022/04/06 13:51:06;;;;;;;;;;;11.70;99.90;;;;;;5020665;28;19929;-78
2022/04/06 13:53:33;;;;;;;;;;;11.60;99.90;;;;;;5002900;28;20012;-77
2022/04/06 13:55:59;;;;;;;;;;;11.60;99.90;;;;;;5019727;28;20415;-76
2022/04/06 13:58:26;;;;;;;;;;;11.50;99.90;;;;;;5015150;28;20273;-76
2022/04/06 14:00:52;;;;;;;;;;;11.50;99.90;;;;;;5004286;28;19929;-76
2022/04/06 14:03:19;;;;;;;;;;;11.40;99.90;;;;;;5022653;28;19929;-76
2022/04/06 14:05:46;;;;;;;;;;;11.40;99.90;;;;;;5004335;28;19935;-79
2022/04/06 14:08:12;;;;;;;;;;;11.40;99.90;;;;;;5016284;28;19929;-77
2022/04/06 14:10:39;;;;;;;;;;;11.30;99.90;;;;;;5028518;28;19925;-76
2022/04/06 14:13:05;;;;;;;;;;;11.40;99.90;;;;;;5021221;28;19932;-76
2022/04/06 14:15:32;;;;;;;;;;;11.30;99.90;;;;;;5016828;28;19967;-76
2022/04/06 14:17:59;;;;;;;;;;;11.20;99.90;;;;;;5022291;28;19929;-77
2022/04/06 14:20:25;;;;;;;;;;;11.20;99.90;;;;;;5026205;28;19987;-76
2022/04/06 14:22:52;;;;;;;;;;;11.10;99.90;;;;;;5016441;28;19959;-76
2022/04/06 14:25:20;;;;;;;;;;;11.10;99.90;;;;;;5027566;28;20008;-76
2022/04/06 14:27:46;;;;;;;;;;;11.00;99.90;;;;;;5017550;28;20433;-78
2022/04/06 14:30:13;;;;;;;;;;;10.90;99.90;;;;;;5011778;28;19936;-76
2022/04/06 14:32:40;;;;;;;;;;;10.90;99.90;;;;;;5018253;28;19929;-76
2022/04/06 14:35:07;;;;;;;;;;;10.90;99.90;;;;;;5017529;28;20400;-76